Overview Statistics Trail Chart Weather Telemetry Raw packets
 

This is the latest recevied weather packets stored in our database for station/object OE3CJB-13. If no packets are shown the sender has not sent any weather packets the latest 10 day(s).

<< 28 29 30 31 32 33 34 >>
Time Temp. Humidity Pressure Rain* Wind** Luminosity Snow
1788045365 16.67° C 80% 1181.7 hPa 0 mm - - -
1788044445 16.67° C 78% 1184.5 hPa 0 mm - - -
1788043531 16.67° C 77% 1185.3 hPa 0 mm - - -
1788042619 16.67° C 76% 1186.1 hPa 0 mm - - -
1788041755 16.67° C 76% 1185.4 hPa 0 mm - - -
1788040845 17.22° C 75% 1185.4 hPa 0 mm - - -
1788039931 17.22° C 74% 1186.9 hPa 0 mm - - -
1788039020 17.78° C 73% 1187 hPa 0 mm - - -
1788038156 17.78° C 72% 1186.9 hPa 0 mm - - -
1788037245 18.33° C 70% 1186.9 hPa 0 mm - - -
1788036332 18.33° C 67% 1186.1 hPa 0 mm - - -
1788035419 18.89° C 64% 1187 hPa 0 mm - - -
1788034570 19.44° C 62% 1186.8 hPa 0 mm - - -
1788033659 19.44° C 64% 1187 hPa 0 mm - - -
1788032731 19.44° C 64% 1186.9 hPa 0 mm - - -
1788031822 19.44° C 67% 1186.8 hPa 0 mm - - -
1788030958 20° C 66% 1186.8 hPa 0 mm - - -
1788030045 20° C 64% 1187.5 hPa 0 mm - - -
1788029135 20.56° C 61% 1186.8 hPa 0 mm - - -
1788028219 20.56° C 59% 1186.8 hPa 0 mm - - -
1788027356 21.11° C 56% 1187.4 hPa 0 mm - - -
1788026446 21.67° C 53% 1186.6 hPa 0 mm - - -
1788025531 22.22° C 50% 1186.6 hPa 0 mm - - -
1788024624 23.33° C 44% 1186.5 hPa 0 mm - - -
1788023755 23.89° C 39% 1182.6 hPa 0 mm - - -

* Rain latest hour (hover to see other rain measurements)
** Current wind speed in m/s (hover to see current wind gust speed)